createdAt,value
2019-03-16T00:01:41.928Z,97.60
2019-03-16T00:04:10.372Z,97.60
2019-03-16T00:06:38.770Z,97.50
2019-03-16T00:09:07.591Z,97.60
2019-03-16T00:11:36.041Z,97.50
2019-03-16T00:14:04.500Z,97.50
2019-03-16T00:16:32.897Z,97.40
2019-03-16T00:19:01.345Z,97.40
2019-03-16T00:21:29.756Z,97.50
2019-03-16T00:23:58.208Z,97.70
2019-03-16T00:26:26.687Z,97.50
2019-03-16T00:28:55.147Z,97.70
2019-03-16T00:31:23.557Z,97.30
2019-03-16T00:33:52.024Z,97.70
2019-03-16T00:36:20.420Z,97.40
2019-03-16T00:38:48.885Z,97.30
2019-03-16T00:41:17.298Z,97.00
2019-03-16T00:43:45.733Z,96.90
2019-03-16T00:46:14.155Z,97.00
2019-03-16T00:48:42.593Z,97.30
2019-03-16T00:51:11.035Z,97.20
2019-03-16T00:53:39.438Z,96.90
2019-03-16T00:56:07.890Z,97.10
2019-03-16T00:58:36.343Z,97.00
2019-03-16T01:01:04.731Z,96.90
2019-03-16T01:03:33.132Z,96.70
2019-03-16T01:06:01.590Z,96.70
2019-03-16T01:08:29.992Z,96.80
2019-03-16T01:10:58.443Z,96.60
2019-03-16T01:13:26.868Z,96.50
2019-03-16T01:15:55.338Z,96.30
2019-03-16T01:18:23.771Z,96.60
2019-03-16T01:20:52.231Z,96.40
2019-03-16T01:23:20.619Z,96.80
2019-03-16T01:25:49.082Z,96.70
2019-03-16T01:28:17.483Z,96.80
2019-03-16T01:30:45.940Z,97.00
2019-03-16T01:33:14.349Z,97.00
2019-03-16T01:35:42.799Z,97.20
2019-03-16T01:38:11.205Z,97.40
2019-03-16T01:40:39.746Z,97.30
2019-03-16T01:43:08.144Z,97.60
2019-03-16T01:45:36.537Z,97.80
2019-03-16T01:48:04.994Z,97.80
2019-03-16T01:50:33.395Z,97.40
2019-03-16T01:53:01.839Z,97.90
2019-03-16T01:55:30.364Z,97.10
2019-03-16T01:57:58.872Z,97.40
2019-03-16T02:00:27.277Z,97.50
2019-03-16T02:02:56.031Z,97.50
2019-03-16T02:05:24.524Z,97.60
2019-03-16T02:07:52.980Z,97.60
2019-03-16T02:10:21.385Z,97.60
2019-03-16T02:12:49.847Z,97.70
2019-03-16T02:15:18.245Z,97.70
2019-03-16T02:17:46.707Z,97.50
2019-03-16T02:20:15.105Z,97.80
2019-03-16T02:22:43.568Z,98.40
2019-03-16T02:25:11.943Z,97.90
2019-03-16T02:27:40.405Z,97.80
2019-03-16T02:30:11.187Z,98.10
2019-03-16T02:32:39.698Z,98.10
2019-03-16T02:35:08.770Z,98.20
2019-03-16T02:37:37.244Z,98.10
2019-03-16T02:40:08.146Z,98.00
2019-03-16T02:42:36.581Z,98.00
2019-03-16T02:45:09.458Z,98.20
2019-03-16T02:47:37.081Z,98.20
2019-03-16T02:50:07.757Z,98.20
2019-03-16T02:52:36.163Z,98.00
2019-03-16T02:55:07.067Z,97.80
2019-03-16T02:57:35.467Z,97.80
2019-03-16T03:00:06.111Z,97.90
2019-03-16T03:02:34.502Z,98.00
2019-03-16T03:05:03.304Z,98.10
2019-03-16T03:07:31.714Z,97.70
2019-03-16T03:10:00.417Z,97.40
2019-03-16T03:12:28.949Z,97.30
2019-03-16T03:14:57.405Z,97.30
2019-03-16T03:17:25.820Z,97.30
2019-03-16T03:19:54.297Z,97.20
2019-03-16T03:22:22.690Z,97.00
2019-03-16T03:24:51.153Z,97.10
2019-03-16T03:27:19.580Z,97.00
2019-03-16T03:29:48.057Z,96.90
2019-03-16T03:32:16.525Z,97.10
2019-03-16T03:34:44.945Z,96.90
2019-03-16T03:37:13.459Z,96.90
2019-03-16T03:39:41.855Z,96.90
2019-03-16T03:42:10.315Z,96.90
2019-03-16T03:44:38.753Z,96.80
2019-03-16T03:47:07.273Z,96.70
2019-03-16T03:49:35.683Z,96.80
2019-03-16T03:52:04.155Z,96.50
2019-03-16T03:54:32.624Z,96.40
2019-03-16T03:57:01.075Z,96.50
2019-03-16T03:59:29.582Z,96.50
2019-03-16T04:01:58.114Z,96.20
2019-03-16T04:04:26.596Z,96.00
2019-03-16T04:06:55.190Z,96.00
2019-03-16T04:09:23.646Z,95.80
2019-03-16T04:11:52.097Z,95.90
2019-03-16T04:14:20.525Z,95.70
2019-03-16T04:16:49.034Z,95.50
2019-03-16T04:19:17.436Z,95.50
2019-03-16T04:21:45.890Z,95.60
2019-03-16T04:24:14.298Z,95.50
2019-03-16T04:26:42.695Z,95.30
2019-03-16T04:29:11.162Z,95.00
2019-03-16T04:31:39.571Z,95.30
2019-03-16T04:34:09.386Z,95.20
2019-03-16T04:36:37.811Z,95.40
2019-03-16T04:39:07.015Z,95.40
2019-03-16T04:41:35.419Z,95.50
2019-03-16T04:44:03.889Z,95.50
2019-03-16T04:46:32.308Z,95.80
2019-03-16T04:49:00.774Z,96.20
2019-03-16T04:51:29.270Z,96.30
2019-03-16T04:53:57.708Z,96.30
2019-03-16T04:56:26.120Z,96.50
2019-03-16T04:58:54.591Z,96.60
2019-03-16T05:01:22.992Z,96.70
2019-03-16T05:03:51.442Z,96.70
2019-03-16T05:06:19.846Z,96.60
2019-03-16T05:08:48.314Z,96.60
2019-03-16T05:11:16.761Z,96.60
2019-03-16T05:13:45.202Z,96.70
2019-03-16T05:16:13.672Z,96.70
2019-03-16T05:18:42.138Z,96.80
2019-03-16T05:21:10.528Z,96.80
2019-03-16T05:23:39.000Z,96.90
2019-03-16T05:26:07.406Z,96.90
2019-03-16T05:28:35.801Z,96.90
2019-03-16T05:31:04.237Z,96.70
2019-03-16T05:33:32.646Z,96.60
2019-03-16T05:36:01.160Z,97.00
2019-03-16T05:38:29.621Z,96.80
2019-03-16T05:40:58.076Z,96.60
2019-03-16T05:43:26.484Z,96.80
2019-03-16T05:45:54.912Z,96.70
2019-03-16T05:48:23.325Z,96.60
2019-03-16T05:50:51.778Z,96.50
2019-03-16T05:53:20.175Z,96.50
2019-03-16T05:55:48.628Z,96.60
2019-03-16T05:58:17.032Z,96.40
2019-03-16T06:00:45.538Z,96.30
2019-03-16T06:03:13.953Z,96.20
2019-03-16T06:05:42.407Z,95.70
2019-03-16T06:08:10.813Z,95.80
2019-03-16T06:10:39.274Z,95.60
2019-03-16T06:13:07.671Z,95.40
2019-03-16T06:15:36.085Z,95.00
2019-03-16T06:18:04.549Z,95.10
2019-03-16T06:20:32.942Z,94.70
2019-03-16T06:23:01.543Z,94.70
2019-03-16T06:25:29.960Z,94.80
2019-03-16T06:27:58.487Z,94.70
2019-03-16T06:30:26.890Z,94.70
2019-03-16T06:32:55.341Z,94.70
2019-03-16T06:35:26.491Z,94.50
2019-03-16T06:37:53.907Z,94.40
2019-03-16T06:40:22.315Z,94.50
2019-03-16T06:42:50.734Z,94.40
2019-03-16T06:45:19.143Z,94.70
2019-03-16T06:47:47.598Z,94.60
2019-03-16T06:50:16.163Z,94.70
2019-03-16T06:52:44.617Z,94.40
2019-03-16T06:55:13.860Z,93.90
2019-03-16T06:57:42.272Z,94.40
2019-03-16T07:00:19.645Z,94.30
2019-03-16T07:02:48.119Z,93.80
2019-03-16T07:05:20.539Z,94.10
2019-03-16T07:07:46.792Z,94.00
2019-03-16T07:10:15.246Z,94.20
2019-03-16T07:12:43.665Z,94.30
2019-03-16T07:15:15.730Z,94.20
2019-03-16T07:17:44.206Z,94.40
2019-03-16T07:20:14.239Z,94.20
2019-03-16T07:22:42.656Z,94.10
2019-03-16T07:25:11.170Z,94.20
2019-03-16T07:27:39.575Z,93.70
2019-03-16T07:30:12.692Z,94.00
2019-03-16T07:32:41.098Z,93.60
2019-03-16T07:35:09.840Z,93.50
2019-03-16T07:37:38.310Z,92.70
2019-03-16T07:40:09.847Z,92.80
2019-03-16T07:42:38.245Z,92.70
2019-03-16T07:45:09.220Z,92.70
2019-03-16T07:47:37.703Z,92.70
2019-03-16T07:50:08.586Z,92.00
2019-03-16T07:52:36.997Z,92.60
2019-03-16T07:55:06.613Z,92.40
2019-03-16T07:57:40.145Z,92.60
2019-03-16T08:00:08.066Z,92.70
2019-03-16T08:02:36.469Z,92.50
2019-03-16T08:05:17.349Z,92.80
2019-03-16T08:07:35.989Z,92.70
2019-03-16T08:10:06.930Z,92.30
2019-03-16T08:12:35.393Z,92.30
2019-03-16T08:15:05.638Z,92.10
2019-03-16T08:17:34.107Z,92.30
2019-03-16T08:20:02.572Z,91.90
2019-03-16T08:22:31.034Z,91.60
2019-03-16T08:24:59.487Z,91.60
2019-03-16T08:27:27.997Z,91.40
2019-03-16T08:29:56.403Z,90.80
2019-03-16T08:32:25.495Z,91.20
2019-03-16T08:34:54.212Z,91.30
2019-03-16T08:37:22.703Z,91.30
2019-03-16T08:39:51.106Z,91.50
2019-03-16T08:42:19.553Z,91.80
2019-03-16T08:44:47.966Z,92.00
2019-03-16T08:47:16.421Z,92.10
2019-03-16T08:49:44.830Z,91.90
2019-03-16T08:52:13.299Z,91.90
2019-03-16T08:54:41.705Z,92.00
2019-03-16T08:57:10.217Z,92.10
2019-03-16T08:59:38.724Z,91.90
2019-03-16T09:02:07.123Z,92.10
2019-03-16T09:04:35.581Z,92.30
2019-03-16T09:07:05.774Z,92.20
2019-03-16T09:09:34.213Z,92.10
2019-03-16T09:12:02.614Z,91.80
2019-03-16T09:14:31.063Z,91.80
2019-03-16T09:16:59.448Z,91.80
2019-03-16T09:19:27.902Z,91.40
2019-03-16T09:21:56.310Z,91.20
2019-03-16T09:24:24.775Z,90.50
2019-03-16T09:26:53.184Z,91.00
2019-03-16T09:29:21.653Z,90.70
2019-03-16T09:31:50.042Z,90.90
2019-03-16T09:34:18.497Z,91.10
2019-03-16T09:36:46.913Z,91.40
2019-03-16T09:39:15.360Z,91.40
2019-03-16T09:41:43.766Z,91.70
2019-03-16T09:44:12.219Z,91.60
2019-03-16T09:46:40.749Z,91.40
2019-03-16T09:49:09.177Z,91.70
2019-03-16T09:51:37.623Z,91.70
2019-03-16T09:54:06.013Z,91.80
2019-03-16T09:56:34.461Z,91.70
2019-03-16T09:59:02.969Z,92.10
2019-03-16T10:01:31.456Z,91.80
2019-03-16T10:03:59.844Z,92.10
2019-03-16T10:06:28.314Z,92.20
2019-03-16T10:08:56.724Z,92.10
2019-03-16T10:11:25.169Z,92.00
2019-03-16T10:13:53.628Z,91.70
2019-03-16T10:16:22.098Z,92.00
2019-03-16T10:18:50.503Z,92.00
2019-03-16T10:21:19.026Z,91.80
2019-03-16T10:23:47.572Z,91.30
2019-03-16T10:26:16.015Z,91.10
2019-03-16T10:28:44.484Z,90.30
2019-03-16T10:31:12.874Z,90.30
2019-03-16T10:33:41.339Z,88.70
2019-03-16T10:36:09.754Z,89.00
2019-03-16T10:38:38.589Z,87.00
2019-03-16T10:41:07.094Z,87.70
2019-03-16T10:43:35.543Z,85.30
2019-03-16T10:46:03.942Z,83.90
2019-03-16T10:48:32.401Z,83.90
2019-03-16T10:51:00.801Z,83.70
2019-03-16T10:53:29.271Z,82.90
2019-03-16T10:55:57.691Z,83.60
2019-03-16T10:58:26.220Z,81.10
2019-03-16T11:00:54.638Z,81.60
2019-03-16T11:03:23.043Z,81.90
2019-03-16T11:05:51.501Z,80.90
2019-03-16T11:08:19.954Z,80.40
2019-03-16T11:10:48.415Z,79.30
2019-03-16T11:13:16.813Z,77.50
2019-03-16T11:15:45.270Z,77.50
2019-03-16T11:18:13.741Z,77.90
2019-03-16T11:20:42.181Z,76.20
2019-03-16T11:23:10.688Z,76.30
2019-03-16T11:25:39.194Z,77.90
2019-03-16T11:28:07.592Z,77.90
2019-03-16T11:30:36.047Z,77.00
2019-03-16T11:33:04.513Z,78.50
2019-03-16T11:35:32.973Z,76.80
2019-03-16T11:38:01.382Z,77.50
2019-03-16T11:40:29.837Z,77.70
2019-03-16T11:42:58.250Z,75.70
2019-03-16T11:45:26.715Z,75.20
2019-03-16T11:47:55.110Z,76.20
2019-03-16T11:50:23.641Z,75.40
2019-03-16T11:52:52.043Z,74.40
2019-03-16T11:55:20.539Z,75.50
2019-03-16T11:57:48.933Z,73.50
2019-03-16T12:00:17.485Z,74.30
2019-03-16T12:02:45.880Z,74.10
2019-03-16T12:05:14.405Z,71.40
2019-03-16T12:07:42.805Z,67.80
2019-03-16T12:10:13.314Z,69.00
2019-03-16T12:12:44.389Z,68.90
2019-03-16T12:15:13.973Z,68.80
2019-03-16T12:17:42.439Z,69.30
2019-03-16T12:20:18.593Z,69.20
2019-03-16T12:22:47.285Z,70.00
2019-03-16T12:25:15.768Z,64.40
2019-03-16T12:27:44.174Z,65.10
2019-03-16T12:30:14.171Z,66.10
2019-03-16T12:32:42.572Z,66.80
2019-03-16T12:35:11.405Z,69.00
2019-03-16T12:37:40.244Z,68.70
2019-03-16T12:40:13.757Z,68.70
2019-03-16T12:42:42.375Z,67.90
2019-03-16T12:45:13.882Z,67.50
2019-03-16T12:47:42.327Z,68.50
2019-03-16T12:50:10.859Z,67.10
2019-03-16T12:52:39.467Z,66.80
2019-03-16T12:55:12.616Z,67.90
2019-03-16T12:57:41.145Z,67.60
2019-03-16T13:00:19.774Z,68.60
2019-03-16T13:02:48.414Z,69.00
2019-03-16T13:05:16.873Z,66.10
2019-03-16T13:07:45.354Z,68.70
2019-03-16T13:10:20.323Z,68.90
2019-03-16T13:12:48.931Z,67.10
2019-03-16T13:15:17.400Z,66.50
2019-03-16T13:17:45.926Z,65.20
2019-03-16T13:20:15.476Z,67.20
2019-03-16T13:22:44.002Z,64.60
2019-03-16T13:25:12.506Z,64.10
2019-03-16T13:27:41.024Z,64.80
2019-03-16T13:30:21.743Z,64.50
2019-03-16T13:32:50.249Z,65.00
2019-03-16T13:35:18.636Z,65.00
2019-03-16T13:37:47.169Z,66.10
2019-03-16T13:40:19.754Z,66.20
2019-03-16T13:42:48.225Z,67.00
2019-03-16T13:45:16.745Z,67.30
2019-03-16T13:47:45.224Z,66.70
2019-03-16T13:50:18.803Z,68.80
2019-03-16T13:52:47.480Z,68.40
2019-03-16T13:55:15.956Z,66.90
2019-03-16T13:57:44.389Z,69.30
2019-03-16T14:00:20.697Z,68.90
2019-03-16T14:02:49.421Z,69.60
2019-03-16T14:05:17.898Z,69.60
2019-03-16T14:07:46.311Z,69.60
2019-03-16T14:10:17.860Z,67.70
2019-03-16T14:12:46.339Z,68.20
2019-03-16T14:15:14.806Z,66.90
2019-03-16T14:17:43.533Z,67.80
2019-03-16T14:20:14.626Z,67.50
2019-03-16T14:22:43.187Z,68.60
2019-03-16T14:25:11.817Z,66.70
2019-03-16T14:27:40.213Z,67.70
2019-03-16T14:30:29.425Z,67.80
2019-03-16T14:32:46.931Z,68.70
2019-03-16T14:35:15.404Z,69.50
2019-03-16T14:37:43.934Z,69.10
2019-03-16T14:40:13.793Z,69.40
2019-03-16T14:42:42.375Z,69.30
2019-03-16T14:45:16.003Z,68.40
2019-03-16T14:47:44.406Z,68.50
2019-03-16T14:50:16.512Z,69.00
2019-03-16T14:52:45.149Z,68.10
2019-03-16T14:55:13.834Z,68.90
2019-03-16T14:57:42.296Z,69.90
2019-03-16T15:00:18.303Z,70.50
2019-03-16T15:02:46.982Z,69.40
2019-03-16T15:05:15.810Z,66.60
2019-03-16T15:07:44.347Z,67.00
2019-03-16T15:10:16.923Z,65.60
2019-03-16T15:12:45.426Z,65.70
2019-03-16T15:15:21.118Z,65.40
2019-03-16T15:17:49.593Z,65.10
2019-03-16T15:20:18.127Z,65.30
2019-03-16T15:22:46.539Z,64.80
2019-03-16T15:25:15.194Z,64.80
2019-03-16T15:27:43.740Z,64.90
2019-03-16T15:30:14.644Z,66.00
2019-03-16T15:32:43.156Z,66.80
2019-03-16T15:35:11.549Z,66.70
2019-03-16T15:37:40.038Z,67.20
2019-03-16T15:40:11.149Z,67.40
2019-03-16T15:42:39.617Z,67.00
2019-03-16T15:45:11.091Z,67.70
2019-03-16T15:47:39.539Z,67.00
2019-03-16T15:50:09.068Z,67.30
2019-03-16T15:52:37.880Z,67.80
2019-03-16T15:55:07.059Z,66.90
2019-03-16T15:57:35.517Z,67.00
2019-03-16T16:00:07.159Z,66.00
2019-03-16T16:02:35.680Z,67.20
2019-03-16T16:05:05.737Z,66.10
2019-03-16T16:07:35.325Z,65.40
2019-03-16T16:10:06.809Z,65.30
2019-03-16T16:12:35.218Z,65.20
2019-03-16T16:15:05.920Z,64.00
2019-03-16T16:17:34.363Z,64.00
2019-03-16T16:20:03.091Z,64.20
2019-03-16T16:22:31.561Z,63.20
2019-03-16T16:25:00.035Z,62.60
2019-03-16T16:27:28.429Z,62.20
2019-03-16T16:29:56.887Z,62.50
2019-03-16T16:32:25.302Z,62.20
2019-03-16T16:34:53.757Z,62.90
2019-03-16T16:37:22.212Z,63.20
2019-03-16T16:39:50.710Z,62.70
2019-03-16T16:42:19.182Z,62.90
2019-03-16T16:44:48.103Z,63.70
2019-03-16T16:47:16.517Z,63.70
2019-03-16T16:49:44.979Z,64.50
2019-03-16T16:52:13.381Z,64.10
2019-03-16T16:54:41.839Z,64.90
2019-03-16T16:57:10.240Z,65.10
2019-03-16T16:59:38.708Z,65.10
2019-03-16T17:02:07.193Z,64.70
2019-03-16T17:04:35.717Z,66.90
2019-03-16T17:07:04.139Z,65.10
2019-03-16T17:09:32.653Z,65.70
2019-03-16T17:12:01.128Z,66.20
2019-03-16T17:14:29.588Z,66.80
2019-03-16T17:16:58.688Z,67.00
2019-03-16T17:19:27.322Z,66.20
2019-03-16T17:21:55.717Z,67.90
2019-03-16T17:24:24.202Z,67.20
2019-03-16T17:26:52.704Z,67.30
2019-03-16T17:29:21.126Z,67.20
2019-03-16T17:31:49.596Z,66.70
2019-03-16T17:34:17.991Z,66.90
2019-03-16T17:36:46.450Z,67.80
2019-03-16T17:39:14.884Z,68.10
2019-03-16T17:41:43.338Z,68.30
2019-03-16T17:44:11.792Z,68.20
2019-03-16T17:46:40.241Z,68.00
2019-03-16T17:49:08.641Z,68.20
2019-03-16T17:51:37.099Z,68.50
2019-03-16T17:54:05.617Z,68.00
2019-03-16T17:56:34.089Z,68.70
2019-03-16T17:59:02.498Z,68.80
2019-03-16T18:01:30.973Z,69.10
2019-03-16T18:03:59.374Z,68.70
2019-03-16T18:06:27.788Z,69.30
2019-03-16T18:08:56.257Z,70.00
2019-03-16T18:11:24.666Z,70.50
2019-03-16T18:13:53.150Z,70.60
2019-03-16T18:16:21.547Z,71.10
2019-03-16T18:18:50.009Z,71.80
2019-03-16T18:21:18.411Z,72.80
2019-03-16T18:23:46.949Z,73.00
2019-03-16T18:26:15.350Z,73.30
2019-03-16T18:28:43.818Z,73.90
2019-03-16T18:31:12.213Z,74.30
2019-03-16T18:33:40.673Z,75.20
2019-03-16T18:36:11.350Z,75.40
2019-03-16T18:38:39.339Z,76.90
2019-03-16T18:41:07.745Z,77.30
2019-03-16T18:43:36.191Z,78.60
2019-03-16T18:46:04.667Z,79.50
2019-03-16T18:48:33.066Z,79.80
2019-03-16T18:51:01.538Z,80.70
2019-03-16T18:53:29.993Z,81.80
2019-03-16T18:55:58.390Z,82.70
2019-03-16T18:58:36.554Z,84.20
2019-03-16T19:00:57.034Z,85.40
2019-03-16T19:03:25.413Z,86.00
2019-03-16T19:05:53.883Z,86.70
2019-03-16T19:08:22.294Z,87.60
2019-03-16T19:10:53.050Z,88.50
2019-03-16T19:13:20.850Z,89.40
2019-03-16T19:15:49.310Z,90.00
2019-03-16T19:18:17.709Z,90.00
2019-03-16T19:20:46.150Z,90.20
2019-03-16T19:23:14.681Z,90.40
2019-03-16T19:25:43.129Z,90.60
2019-03-16T19:28:11.540Z,90.80
2019-03-16T19:30:40.913Z,91.00
2019-03-16T19:33:09.308Z,91.10
2019-03-16T19:35:37.795Z,91.10
2019-03-16T19:38:06.192Z,91.30
2019-03-16T19:40:34.726Z,91.40
2019-03-16T19:43:03.134Z,91.60
2019-03-16T19:45:31.583Z,91.40
2019-03-16T19:48:02.871Z,91.80
2019-03-16T19:50:30.181Z,92.10
2019-03-16T19:52:58.616Z,92.30
2019-03-16T19:55:27.060Z,92.50
2019-03-16T19:57:55.542Z,92.90
2019-03-16T20:00:23.940Z,92.90
2019-03-16T20:02:52.407Z,93.20
2019-03-16T20:05:20.789Z,93.40
2019-03-16T20:07:49.239Z,93.50
2019-03-16T20:10:18.897Z,93.20
2019-03-16T20:12:47.534Z,93.20
2019-03-16T20:15:16.578Z,93.20
2019-03-16T20:17:45.013Z,93.30
2019-03-16T20:20:14.560Z,93.50
2019-03-16T20:22:43.005Z,93.30
2019-03-16T20:25:12.149Z,93.20
2019-03-16T20:27:40.622Z,93.30
2019-03-16T20:30:25.831Z,93.80
2019-03-16T20:32:48.514Z,94.30
2019-03-16T20:35:17.066Z,94.60
2019-03-16T20:37:45.532Z,94.50
2019-03-16T20:40:15.031Z,94.30
2019-03-16T20:42:43.790Z,94.00
2019-03-16T20:45:12.527Z,94.30
2019-03-16T20:47:41.120Z,94.70
2019-03-16T20:50:14.247Z,94.80
2019-03-16T20:52:42.660Z,94.60
2019-03-16T20:55:11.395Z,94.30
2019-03-16T20:57:39.790Z,94.30
2019-03-16T21:00:18.635Z,94.40
2019-03-16T21:02:47.198Z,94.80
2019-03-16T21:05:15.909Z,94.90
2019-03-16T21:07:44.312Z,94.80
2019-03-16T21:10:13.689Z,94.80
2019-03-16T21:12:42.093Z,95.00
2019-03-16T21:15:12.670Z,94.80
2019-03-16T21:17:41.080Z,94.70
2019-03-16T21:20:12.361Z,94.80
2019-03-16T21:22:40.750Z,94.80
2019-03-16T21:25:11.042Z,95.00
2019-03-16T21:27:39.437Z,95.00
2019-03-16T21:30:13.939Z,95.20
2019-03-16T21:32:42.367Z,95.90
2019-03-16T21:35:10.987Z,95.50
2019-03-16T21:37:39.382Z,95.70
2019-03-16T21:40:10.282Z,95.70
2019-03-16T21:42:38.685Z,95.80
2019-03-16T21:45:12.088Z,96.00
2019-03-16T21:47:40.616Z,95.80
2019-03-16T21:50:12.078Z,95.40
2019-03-16T21:52:40.607Z,95.50
2019-03-16T21:55:10.345Z,95.70
2019-03-16T21:57:38.846Z,96.00
2019-03-16T22:00:15.332Z,96.30
2019-03-16T22:02:43.893Z,96.40
2019-03-16T22:05:12.431Z,96.50
2019-03-16T22:07:40.964Z,96.50
2019-03-16T22:10:14.092Z,96.10
2019-03-16T22:12:42.664Z,96.10
2019-03-16T22:15:14.895Z,96.00
2019-03-16T22:17:43.417Z,96.30
2019-03-16T22:20:18.858Z,96.20
2019-03-16T22:22:47.314Z,96.30
2019-03-16T22:25:15.858Z,96.20
2019-03-16T22:27:44.414Z,96.10
2019-03-16T22:30:15.072Z,96.10
2019-03-16T22:32:43.523Z,95.70
2019-03-16T22:35:12.040Z,95.40
2019-03-16T22:37:40.502Z,95.60
2019-03-16T22:40:11.142Z,95.60
2019-03-16T22:42:39.617Z,95.70
2019-03-16T22:45:13.865Z,95.80
2019-03-16T22:47:42.254Z,95.80
2019-03-16T22:50:18.792Z,95.90
2019-03-16T22:52:47.265Z,96.10
2019-03-16T22:55:16.485Z,96.10
2019-03-16T22:57:45.121Z,96.20
2019-03-16T23:00:26.330Z,96.50
2019-03-16T23:02:54.717Z,96.60
2019-03-16T23:05:23.442Z,96.70
2019-03-16T23:07:51.835Z,96.60
2019-03-16T23:10:20.290Z,96.30
2019-03-16T23:12:48.712Z,95.90
2019-03-16T23:15:17.180Z,96.30
2019-03-16T23:17:45.644Z,96.50
2019-03-16T23:20:14.226Z,96.90
2019-03-16T23:22:42.623Z,97.00
2019-03-16T23:25:11.439Z,97.10
2019-03-16T23:27:39.856Z,97.10
2019-03-16T23:30:09.648Z,97.00
2019-03-16T23:32:38.045Z,97.00
2019-03-16T23:35:07.931Z,97.20
2019-03-16T23:37:36.413Z,97.20
2019-03-16T23:40:14.398Z,96.90
2019-03-16T23:42:42.893Z,96.70
2019-03-16T23:45:12.794Z,96.90
2019-03-16T23:47:41.329Z,96.70
2019-03-16T23:50:11.071Z,96.90
2019-03-16T23:52:39.531Z,96.90
2019-03-16T23:55:09.067Z,96.80
2019-03-16T23:57:37.525Z,96.90
